Vandalia, Illinois
Current Conditions -  °F | °C
As of 5:55 PM on Thursday 18 Dec 2014 (Local Time) from KSLO Reporting Station
Overcast Overcast  
Wind Chill: -2°   Ceiling: 3800
Heat Index:   Visibility: 10mi
Dew Point: -3°   Wind: 5mph
Humidity: 75%   Direction: 360°N
Pressure: 30.26"   Gusts: NA
Location:  38.96°N, 89.1°W
Report Text: KSLO 182355Z AUTO 36004KT 10SM OVC038 01/M03 A3026 RMK AO2 T00071033 10011 20000
Loading
Personal Weather Stations






























Interactive Weather Map New forecast layout! Learn more

10-Day Weather Forecast

Advertisements
Track Severe Weather on mobile